sensor_id;sensor_type;location;lat;lon;timestamp;P1;durP1;ratioP1;P2;durP2;ratioP2
22786;SDS011;63134;52.020;4.714;2023-07-29T00:00:53;2.25;;;1.90;;
22786;SDS011;63134;52.020;4.714;2023-07-29T00:03:41;2.10;;;1.45;;
22786;SDS011;63134;52.020;4.714;2023-07-29T00:06:26;2.95;;;2.15;;
22786;SDS011;63134;52.020;4.714;2023-07-29T00:09:12;2.35;;;1.70;;
22786;SDS011;63134;52.020;4.714;2023-07-29T00:11:58;3.72;;;1.80;;
22786;SDS011;63134;52.020;4.714;2023-07-29T00:14:45;1.90;;;1.80;;
22786;SDS011;63134;52.020;4.714;2023-07-29T00:17:30;2.03;;;1.50;;
22786;SDS011;63134;52.020;4.714;2023-07-29T00:20:16;3.47;;;1.70;;
22786;SDS011;63134;52.020;4.714;2023-07-29T00:23:01;3.78;;;1.98;;
22786;SDS011;63134;52.020;4.714;2023-07-29T00:25:47;1.88;;;1.50;;
22786;SDS011;63134;52.020;4.714;2023-07-29T00:28:33;2.80;;;1.73;;
22786;SDS011;63134;52.020;4.714;2023-07-29T00:31:18;3.45;;;1.80;;
22786;SDS011;63134;52.020;4.714;2023-07-29T00:34:04;4.47;;;1.85;;
22786;SDS011;63134;52.020;4.714;2023-07-29T00:36:50;4.00;;;2.10;;
22786;SDS011;63134;52.020;4.714;2023-07-29T00:39:36;5.57;;;2.13;;
22786;SDS011;63134;52.020;4.714;2023-07-29T00:42:22;4.70;;;2.67;;
22786;SDS011;63134;52.020;4.714;2023-07-29T00:45:08;4.75;;;2.20;;
22786;SDS011;63134;52.020;4.714;2023-07-29T00:47:55;6.20;;;2.60;;
22786;SDS011;63134;52.020;4.714;2023-07-29T00:50:41;5.80;;;2.70;;
22786;SDS011;63134;52.020;4.714;2023-07-29T00:53:26;3.80;;;2.70;;
22786;SDS011;63134;52.020;4.714;2023-07-29T00:56:12;5.97;;;2.80;;
22786;SDS011;63134;52.020;4.714;2023-07-29T00:58:58;3.78;;;2.90;;
22786;SDS011;63134;52.020;4.714;2023-07-29T01:01:46;4.97;;;3.13;;
22786;SDS011;63134;52.020;4.714;2023-07-29T01:04:32;8.32;;;3.35;;
22786;SDS011;63134;52.020;4.714;2023-07-29T01:07:28;5.78;;;3.20;;
22786;SDS011;63134;52.020;4.714;2023-07-29T01:16:31;7.88;;;4.47;;
22786;SDS011;63134;52.020;4.714;2023-07-29T01:22:38;7.32;;;3.75;;
22786;SDS011;63134;52.020;4.714;2023-07-29T01:25:25;7.70;;;3.70;;
22786;SDS011;63134;52.020;4.714;2023-07-29T01:28:10;6.72;;;3.47;;
22786;SDS011;63134;52.020;4.714;2023-07-29T01:33:57;4.43;;;3.40;;
22786;SDS011;63134;52.020;4.714;2023-07-29T01:36:51;4.75;;;2.95;;
22786;SDS011;63134;52.020;4.714;2023-07-29T01:39:39;4.75;;;2.67;;
22786;SDS011;63134;52.020;4.714;2023-07-29T01:42:25;2.97;;;2.60;;
22786;SDS011;63134;52.020;4.714;2023-07-29T01:45:14;6.57;;;2.80;;
22786;SDS011;63134;52.020;4.714;2023-07-29T01:48:00;4.57;;;2.63;;
22786;SDS011;63134;52.020;4.714;2023-07-29T01:50:46;5.05;;;2.45;;
22786;SDS011;63134;52.020;4.714;2023-07-29T01:53:31;4.45;;;2.60;;
22786;SDS011;63134;52.020;4.714;2023-07-29T01:56:17;2.60;;;1.77;;
22786;SDS011;63134;52.020;4.714;2023-07-29T01:59:10;4.18;;;2.20;;
22786;SDS011;63134;52.020;4.714;2023-07-29T02:01:55;3.08;;;2.20;;
22786;SDS011;63134;52.020;4.714;2023-07-29T02:04:41;4.55;;;2.35;;
22786;SDS011;63134;52.020;4.714;2023-07-29T02:07:27;3.13;;;2.28;;
22786;SDS011;63134;52.020;4.714;2023-07-29T02:10:16;3.83;;;2.60;;
22786;SDS011;63134;52.020;4.714;2023-07-29T02:13:03;4.03;;;2.55;;
22786;SDS011;63134;52.020;4.714;2023-07-29T02:15:48;3.42;;;2.10;;
22786;SDS011;63134;52.020;4.714;2023-07-29T02:18:33;3.83;;;2.60;;
22786;SDS011;63134;52.020;4.714;2023-07-29T02:21:20;5.13;;;2.53;;
22786;SDS011;63134;52.020;4.714;2023-07-29T02:24:05;3.45;;;2.28;;
22786;SDS011;63134;52.020;4.714;2023-07-29T02:26:51;3.83;;;2.50;;
22786;SDS011;63134;52.020;4.714;2023-07-29T02:29:37;7.03;;;3.08;;
22786;SDS011;63134;52.020;4.714;2023-07-29T02:32:22;4.97;;;2.60;;
22786;SDS011;63134;52.020;4.714;2023-07-29T02:35:08;5.07;;;2.60;;
22786;SDS011;63134;52.020;4.714;2023-07-29T02:37:55;4.07;;;2.63;;
22786;SDS011;63134;52.020;4.714;2023-07-29T02:40:43;5.28;;;2.78;;
22786;SDS011;63134;52.020;4.714;2023-07-29T02:43:29;5.47;;;2.15;;
22786;SDS011;63134;52.020;4.714;2023-07-29T02:46:14;3.80;;;2.53;;
22786;SDS011;63134;52.020;4.714;2023-07-29T02:49:01;4.18;;;2.67;;
22786;SDS011;63134;52.020;4.714;2023-07-29T02:51:48;4.75;;;2.30;;
22786;SDS011;63134;52.020;4.714;2023-07-29T02:54:34;3.22;;;2.38;;
22786;SDS011;63134;52.020;4.714;2023-07-29T02:57:19;4.57;;;2.33;;
22786;SDS011;63134;52.020;4.714;2023-07-29T03:00:05;5.15;;;2.35;;
22786;SDS011;63134;52.020;4.714;2023-07-29T03:02:52;6.03;;;2.83;;
22786;SDS011;63134;52.020;4.714;2023-07-29T03:05:38;4.38;;;2.80;;
22786;SDS011;63134;52.020;4.714;2023-07-29T03:08:24;4.25;;;2.60;;
22786;SDS011;63134;52.020;4.714;2023-07-29T03:11:10;5.40;;;2.97;;
22786;SDS011;63134;52.020;4.714;2023-07-29T03:13:57;3.25;;;2.33;;
22786;SDS011;63134;52.020;4.714;2023-07-29T03:16:44;5.82;;;2.83;;
22786;SDS011;63134;52.020;4.714;2023-07-29T03:19:30;3.78;;;3.00;;
22786;SDS011;63134;52.020;4.714;2023-07-29T03:22:15;2.85;;;2.33;;
22786;SDS011;63134;52.020;4.714;2023-07-29T03:25:01;3.97;;;2.40;;
22786;SDS011;63134;52.020;4.714;2023-07-29T03:27:46;9.00;;;2.75;;
22786;SDS011;63134;52.020;4.714;2023-07-29T03:30:34;6.25;;;3.03;;
22786;SDS011;63134;52.020;4.714;2023-07-29T03:33:20;3.88;;;2.95;;
22786;SDS011;63134;52.020;4.714;2023-07-29T03:36:06;4.72;;;2.50;;
22786;SDS011;63134;52.020;4.714;2023-07-29T03:38:52;3.42;;;2.67;;
22786;SDS011;63134;52.020;4.714;2023-07-29T03:41:37;5.10;;;2.80;;
22786;SDS011;63134;52.020;4.714;2023-07-29T03:44:23;3.85;;;2.85;;
22786;SDS011;63134;52.020;4.714;2023-07-29T03:47:08;3.28;;;2.30;;
22786;SDS011;63134;52.020;4.714;2023-07-29T03:49:56;5.50;;;2.47;;
22786;SDS011;63134;52.020;4.714;2023-07-29T03:52:41;4.78;;;2.95;;
22786;SDS011;63134;52.020;4.714;2023-07-29T03:55:27;2.45;;;2.22;;
22786;SDS011;63134;52.020;4.714;2023-07-29T03:58:14;7.63;;;2.63;;
22786;SDS011;63134;52.020;4.714;2023-07-29T04:00:59;3.08;;;2.42;;
22786;SDS011;63134;52.020;4.714;2023-07-29T04:03:45;4.32;;;2.63;;
22786;SDS011;63134;52.020;4.714;2023-07-29T04:06:33;3.30;;;2.50;;
22786;SDS011;63134;52.020;4.714;2023-07-29T04:09:19;8.80;;;3.22;;
22786;SDS011;63134;52.020;4.714;2023-07-29T04:12:05;5.15;;;2.65;;
22786;SDS011;63134;52.020;4.714;2023-07-29T04:14:51;7.63;;;3.38;;
22786;SDS011;63134;52.020;4.714;2023-07-29T04:17:36;3.92;;;2.92;;
22786;SDS011;63134;52.020;4.714;2023-07-29T04:20:22;5.35;;;3.17;;
22786;SDS011;63134;52.020;4.714;2023-07-29T04:23:07;5.63;;;2.97;;
22786;SDS011;63134;52.020;4.714;2023-07-29T04:25:53;5.13;;;3.00;;
22786;SDS011;63134;52.020;4.714;2023-07-29T04:28:39;4.13;;;3.08;;
22786;SDS011;63134;52.020;4.714;2023-07-29T04:31:24;4.28;;;3.22;;
22786;SDS011;63134;52.020;4.714;2023-07-29T04:34:09;5.88;;;3.40;;
22786;SDS011;63134;52.020;4.714;2023-07-29T04:36:57;6.25;;;3.50;;
22786;SDS011;63134;52.020;4.714;2023-07-29T04:39:42;5.70;;;3.65;;
22786;SDS011;63134;52.020;4.714;2023-07-29T04:42:28;6.07;;;4.07;;
22786;SDS011;63134;52.020;4.714;2023-07-29T04:45:14;5.25;;;3.47;;
22786;SDS011;63134;52.020;4.714;2023-07-29T04:47:59;6.47;;;4.20;;
22786;SDS011;63134;52.020;4.714;2023-07-29T04:50:45;6.22;;;3.97;;
22786;SDS011;63134;52.020;4.714;2023-07-29T04:53:31;5.50;;;3.90;;
22786;SDS011;63134;52.020;4.714;2023-07-29T04:56:16;8.02;;;4.85;;
22786;SDS011;63134;52.020;4.714;2023-07-29T04:59:03;6.90;;;4.10;;
22786;SDS011;63134;52.020;4.714;2023-07-29T05:01:49;11.82;;;3.90;;
22786;SDS011;63134;52.020;4.714;2023-07-29T05:04:38;7.50;;;4.40;;
22786;SDS011;63134;52.020;4.714;2023-07-29T05:07:23;10.63;;;4.78;;
22786;SDS011;63134;52.020;4.714;2023-07-29T05:10:09;5.20;;;4.35;;
22786;SDS011;63134;52.020;4.714;2023-07-29T05:12:56;6.78;;;4.28;;
22786;SDS011;63134;52.020;4.714;2023-07-29T05:15:42;10.73;;;4.57;;
22786;SDS011;63134;52.020;4.714;2023-07-29T05:18:27;6.32;;;3.72;;
22786;SDS011;63134;52.020;4.714;2023-07-29T05:21:13;7.97;;;4.30;;
22786;SDS011;63134;52.020;4.714;2023-07-29T05:23:59;5.55;;;4.28;;
22786;SDS011;63134;52.020;4.714;2023-07-29T05:26:44;4.88;;;3.70;;
22786;SDS011;63134;52.020;4.714;2023-07-29T05:29:30;5.22;;;3.72;;
22786;SDS011;63134;52.020;4.714;2023-07-29T05:32:16;7.80;;;4.35;;
22786;SDS011;63134;52.020;4.714;2023-07-29T05:35:02;8.07;;;4.00;;
22786;SDS011;63134;52.020;4.714;2023-07-29T05:37:48;7.53;;;4.40;;
22786;SDS011;63134;52.020;4.714;2023-07-29T05:40:36;6.13;;;4.13;;
22786;SDS011;63134;52.020;4.714;2023-07-29T05:43:26;7.78;;;4.90;;
22786;SDS011;63134;52.020;4.714;2023-07-29T05:46:12;5.57;;;4.28;;
22786;SDS011;63134;52.020;4.714;2023-07-29T05:48:58;7.55;;;4.40;;
22786;SDS011;63134;52.020;4.714;2023-07-29T05:51:44;6.22;;;3.92;;
22786;SDS011;63134;52.020;4.714;2023-07-29T05:54:30;6.50;;;4.03;;
22786;SDS011;63134;52.020;4.714;2023-07-29T05:57:15;6.55;;;4.25;;
22786;SDS011;63134;52.020;4.714;2023-07-29T06:00:01;5.07;;;3.72;;
22786;SDS011;63134;52.020;4.714;2023-07-29T06:02:56;9.35;;;5.13;;
22786;SDS011;63134;52.020;4.714;2023-07-29T06:05:42;6.28;;;4.10;;
22786;SDS011;63134;52.020;4.714;2023-07-29T06:08:28;10.63;;;4.97;;
22786;SDS011;63134;52.020;4.714;2023-07-29T06:11:14;7.43;;;4.18;;
22786;SDS011;63134;52.020;4.714;2023-07-29T06:13:59;8.52;;;4.68;;
22786;SDS011;63134;52.020;4.714;2023-07-29T06:16:48;7.53;;;4.35;;
22786;SDS011;63134;52.020;4.714;2023-07-29T06:19:34;6.18;;;4.60;;
22786;SDS011;63134;52.020;4.714;2023-07-29T06:22:19;7.05;;;4.03;;
22786;SDS011;63134;52.020;4.714;2023-07-29T06:25:05;6.95;;;3.78;;
22786;SDS011;63134;52.020;4.714;2023-07-29T06:27:50;9.30;;;4.00;;
22786;SDS011;63134;52.020;4.714;2023-07-29T06:30:36;4.03;;;3.20;;
22786;SDS011;63134;52.020;4.714;2023-07-29T06:33:22;6.60;;;3.75;;
22786;SDS011;63134;52.020;4.714;2023-07-29T06:36:08;6.32;;;3.70;;
22786;SDS011;63134;52.020;4.714;2023-07-29T06:38:53;5.90;;;3.83;;
22786;SDS011;63134;52.020;4.714;2023-07-29T06:41:39;6.07;;;3.55;;
22786;SDS011;63134;52.020;4.714;2023-07-29T06:44:24;5.13;;;2.97;;
22786;SDS011;63134;52.020;4.714;2023-07-29T06:47:10;6.63;;;3.55;;
22786;SDS011;63134;52.020;4.714;2023-07-29T06:49:55;4.72;;;3.55;;
22786;SDS011;63134;52.020;4.714;2023-07-29T06:52:40;4.70;;;2.83;;
22786;SDS011;63134;52.020;4.714;2023-07-29T06:55:26;5.20;;;2.92;;
22786;SDS011;63134;52.020;4.714;2023-07-29T06:58:11;4.25;;;2.80;;
22786;SDS011;63134;52.020;4.714;2023-07-29T07:00:57;4.80;;;3.10;;
22786;SDS011;63134;52.020;4.714;2023-07-29T07:03:43;7.00;;;2.60;;
22786;SDS011;63134;52.020;4.714;2023-07-29T07:06:28;4.57;;;2.60;;
22786;SDS011;63134;52.020;4.714;2023-07-29T07:09:13;2.75;;;2.13;;
22786;SDS011;63134;52.020;4.714;2023-07-29T07:11:59;5.82;;;2.97;;
22786;SDS011;63134;52.020;4.714;2023-07-29T07:14:44;5.20;;;2.88;;
22786;SDS011;63134;52.020;4.714;2023-07-29T07:17:32;6.45;;;2.95;;
22786;SDS011;63134;52.020;4.714;2023-07-29T07:20:18;5.85;;;2.33;;
22786;SDS011;63134;52.020;4.714;2023-07-29T07:23:03;4.15;;;2.70;;
22786;SDS011;63134;52.020;4.714;2023-07-29T07:25:50;3.20;;;2.22;;
22786;SDS011;63134;52.020;4.714;2023-07-29T07:28:35;5.03;;;2.70;;
22786;SDS011;63134;52.020;4.714;2023-07-29T07:31:21;4.38;;;2.33;;
22786;SDS011;63134;52.020;4.714;2023-07-29T07:34:07;3.45;;;2.10;;
22786;SDS011;63134;52.020;4.714;2023-07-29T07:36:53;6.75;;;2.22;;
22786;SDS011;63134;52.020;4.714;2023-07-29T07:39:38;4.82;;;2.50;;
22786;SDS011;63134;52.020;4.714;2023-07-29T07:42:24;5.55;;;2.55;;
22786;SDS011;63134;52.020;4.714;2023-07-29T07:45:14;3.00;;;2.38;;
22786;SDS011;63134;52.020;4.714;2023-07-29T07:47:59;3.83;;;2.10;;
22786;SDS011;63134;52.020;4.714;2023-07-29T07:50:45;3.47;;;1.77;;
22786;SDS011;63134;52.020;4.714;2023-07-29T07:53:31;3.88;;;2.30;;
22786;SDS011;63134;52.020;4.714;2023-07-29T07:56:17;2.20;;;1.65;;
22786;SDS011;63134;52.020;4.714;2023-07-29T07:59:02;5.18;;;2.10;;
22786;SDS011;63134;52.020;4.714;2023-07-29T08:01:48;5.13;;;2.22;;
22786;SDS011;63134;52.020;4.714;2023-07-29T08:04:33;4.72;;;2.10;;
22786;SDS011;63134;52.020;4.714;2023-07-29T08:07:19;4.32;;;2.45;;
22786;SDS011;63134;52.020;4.714;2023-07-29T08:10:07;4.53;;;2.20;;
22786;SDS011;63134;52.020;4.714;2023-07-29T08:12:53;4.72;;;2.15;;
22786;SDS011;63134;52.020;4.714;2023-07-29T08:15:38;6.57;;;2.22;;
22786;SDS011;63134;52.020;4.714;2023-07-29T08:18:24;4.22;;;2.17;;
22786;SDS011;63134;52.020;4.714;2023-07-29T08:21:10;3.63;;;2.45;;
22786;SDS011;63134;52.020;4.714;2023-07-29T08:23:56;2.85;;;1.95;;
22786;SDS011;63134;52.020;4.714;2023-07-29T08:26:42;7.22;;;2.50;;
22786;SDS011;63134;52.020;4.714;2023-07-29T08:29:28;7.35;;;2.55;;
22786;SDS011;63134;52.020;4.714;2023-07-29T08:32:13;3.38;;;1.70;;
22786;SDS011;63134;52.020;4.714;2023-07-29T08:34:59;8.63;;;1.88;;
22786;SDS011;63134;52.020;4.714;2023-07-29T08:37:44;3.97;;;2.30;;
22786;SDS011;63134;52.020;4.714;2023-07-29T08:40:30;3.75;;;2.05;;
22786;SDS011;63134;52.020;4.714;2023-07-29T08:43:19;2.95;;;1.50;;
22786;SDS011;63134;52.020;4.714;2023-07-29T08:46:11;6.80;;;1.63;;
22786;SDS011;63134;52.020;4.714;2023-07-29T08:48:57;3.17;;;1.67;;
22786;SDS011;63134;52.020;4.714;2023-07-29T08:51:44;3.75;;;2.05;;
22786;SDS011;63134;52.020;4.714;2023-07-29T08:54:34;3.85;;;2.10;;
22786;SDS011;63134;52.020;4.714;2023-07-29T08:57:20;3.80;;;2.00;;
22786;SDS011;63134;52.020;4.714;2023-07-29T09:00:06;4.15;;;2.70;;
22786;SDS011;63134;52.020;4.714;2023-07-29T09:02:53;4.55;;;2.35;;
22786;SDS011;63134;52.020;4.714;2023-07-29T09:05:39;4.97;;;3.10;;
22786;SDS011;63134;52.020;4.714;2023-07-29T09:08:27;4.15;;;2.30;;
22786;SDS011;63134;52.020;4.714;2023-07-29T09:11:14;4.50;;;2.40;;
22786;SDS011;63134;52.020;4.714;2023-07-29T09:14:02;3.90;;;2.22;;
22786;SDS011;63134;52.020;4.714;2023-07-29T09:16:48;2.53;;;1.77;;
22786;SDS011;63134;52.020;4.714;2023-07-29T09:19:33;5.82;;;2.15;;
22786;SDS011;63134;52.020;4.714;2023-07-29T09:22:19;3.33;;;1.70;;
22786;SDS011;63134;52.020;4.714;2023-07-29T09:25:06;2.42;;;1.77;;
22786;SDS011;63134;52.020;4.714;2023-07-29T09:27:52;1.75;;;1.40;;
22786;SDS011;63134;52.020;4.714;2023-07-29T09:30:45;3.25;;;1.70;;
22786;SDS011;63134;52.020;4.714;2023-07-29T09:33:35;5.32;;;2.17;;
22786;SDS011;63134;52.020;4.714;2023-07-29T09:36:22;4.30;;;2.10;;
22786;SDS011;63134;52.020;4.714;2023-07-29T09:39:10;4.97;;;2.03;;
22786;SDS011;63134;52.020;4.714;2023-07-29T09:41:57;2.13;;;1.92;;
22786;SDS011;63134;52.020;4.714;2023-07-29T09:44:43;2.47;;;1.63;;
22786;SDS011;63134;52.020;4.714;2023-07-29T09:47:29;6.72;;;2.08;;
22786;SDS011;63134;52.020;4.714;2023-07-29T09:50:15;3.70;;;2.08;;
22786;SDS011;63134;52.020;4.714;2023-07-29T09:53:01;3.63;;;1.73;;
22786;SDS011;63134;52.020;4.714;2023-07-29T09:55:48;3.28;;;2.00;;
22786;SDS011;63134;52.020;4.714;2023-07-29T09:58:36;2.67;;;1.88;;
22786;SDS011;63134;52.020;4.714;2023-07-29T10:01:24;4.65;;;2.17;;
22786;SDS011;63134;52.020;4.714;2023-07-29T10:04:10;2.78;;;1.85;;
22786;SDS011;63134;52.020;4.714;2023-07-29T10:06:57;3.40;;;2.33;;
22786;SDS011;63134;52.020;4.714;2023-07-29T10:09:44;3.17;;;2.13;;
22786;SDS011;63134;52.020;4.714;2023-07-29T10:12:30;3.88;;;1.95;;
22786;SDS011;63134;52.020;4.714;2023-07-29T10:15:17;2.83;;;1.98;;
22786;SDS011;63134;52.020;4.714;2023-07-29T10:18:02;2.20;;;1.60;;
22786;SDS011;63134;52.020;4.714;2023-07-29T10:20:50;2.58;;;1.60;;
22786;SDS011;63134;52.020;4.714;2023-07-29T10:23:37;2.97;;;1.50;;
22786;SDS011;63134;52.020;4.714;2023-07-29T10:26:28;2.90;;;1.27;;
22786;SDS011;63134;52.020;4.714;2023-07-29T10:29:20;1.90;;;1.30;;
22786;SDS011;63134;52.020;4.714;2023-07-29T10:32:11;2.30;;;1.02;;
22786;SDS011;63134;52.020;4.714;2023-07-29T10:34:57;2.25;;;1.10;;
22786;SDS011;63134;52.020;4.714;2023-07-29T10:37:43;1.63;;;1.00;;
22786;SDS011;63134;52.020;4.714;2023-07-29T10:40:43;1.88;;;1.05;;
22786;SDS011;63134;52.020;4.714;2023-07-29T10:43:36;3.17;;;1.35;;
22786;SDS011;63134;52.020;4.714;2023-07-29T10:46:23;1.90;;;1.05;;
22786;SDS011;63134;52.020;4.714;2023-07-29T10:49:10;2.25;;;1.00;;
22786;SDS011;63134;52.020;4.714;2023-07-29T10:51:56;1.38;;;1.10;;
22786;SDS011;63134;52.020;4.714;2023-07-29T10:54:45;1.42;;;0.98;;
22786;SDS011;63134;52.020;4.714;2023-07-29T10:57:35;2.00;;;1.10;;
22786;SDS011;63134;52.020;4.714;2023-07-29T11:00:25;2.58;;;1.10;;
22786;SDS011;63134;52.020;4.714;2023-07-29T11:03:16;3.20;;;1.33;;
22786;SDS011;63134;52.020;4.714;2023-07-29T11:06:01;3.22;;;1.40;;
22786;SDS011;63134;52.020;4.714;2023-07-29T11:08:49;1.85;;;1.20;;
22786;SDS011;63134;52.020;4.714;2023-07-29T11:11:35;4.22;;;1.58;;
22786;SDS011;63134;52.020;4.714;2023-07-29T11:14:24;1.23;;;1.13;;
22786;SDS011;63134;52.020;4.714;2023-07-29T11:17:09;1.48;;;1.35;;
22786;SDS011;63134;52.020;4.714;2023-07-29T11:19:56;2.10;;;1.48;;
22786;SDS011;63134;52.020;4.714;2023-07-29T11:22:44;1.73;;;1.60;;
22786;SDS011;63134;52.020;4.714;2023-07-29T11:25:30;5.05;;;2.17;;
22786;SDS011;63134;52.020;4.714;2023-07-29T11:28:18;1.90;;;1.60;;
22786;SDS011;63134;52.020;4.714;2023-07-29T11:31:05;1.73;;;1.38;;
22786;SDS011;63134;52.020;4.714;2023-07-29T11:33:51;1.88;;;1.45;;
22786;SDS011;63134;52.020;4.714;2023-07-29T11:36:37;2.10;;;1.42;;
22786;SDS011;63134;52.020;4.714;2023-07-29T11:39:23;1.55;;;1.30;;
22786;SDS011;63134;52.020;4.714;2023-07-29T11:42:12;1.55;;;1.02;;
22786;SDS011;63134;52.020;4.714;2023-07-29T11:45:01;2.05;;;1.30;;
22786;SDS011;63134;52.020;4.714;2023-07-29T11:47:48;1.80;;;1.05;;
22786;SDS011;63134;52.020;4.714;2023-07-29T11:50:39;2.75;;;1.17;;
22786;SDS011;63134;52.020;4.714;2023-07-29T11:53:28;2.28;;;1.10;;
22786;SDS011;63134;52.020;4.714;2023-07-29T11:56:15;1.30;;;1.10;;
22786;SDS011;63134;52.020;4.714;2023-07-29T11:59:01;2.58;;;1.30;;
22786;SDS011;63134;52.020;4.714;2023-07-29T12:01:48;2.45;;;1.50;;
22786;SDS011;63134;52.020;4.714;2023-07-29T12:04:35;2.30;;;1.23;;
22786;SDS011;63134;52.020;4.714;2023-07-29T12:07:21;1.52;;;1.38;;
22786;SDS011;63134;52.020;4.714;2023-07-29T12:10:06;3.33;;;1.60;;
22786;SDS011;63134;52.020;4.714;2023-07-29T12:12:52;1.23;;;1.13;;
22786;SDS011;63134;52.020;4.714;2023-07-29T12:15:38;4.40;;;1.70;;
22786;SDS011;63134;52.020;4.714;2023-07-29T12:18:29;2.55;;;1.65;;
22786;SDS011;63134;52.020;4.714;2023-07-29T12:21:18;2.60;;;1.67;;
22786;SDS011;63134;52.020;4.714;2023-07-29T12:24:04;3.28;;;1.80;;
22786;SDS011;63134;52.020;4.714;2023-07-29T12:26:50;2.15;;;1.70;;
22786;SDS011;63134;52.020;4.714;2023-07-29T12:29:40;1.98;;;1.77;;
22786;SDS011;63134;52.020;4.714;2023-07-29T12:32:27;3.22;;;2.00;;
22786;SDS011;63134;52.020;4.714;2023-07-29T12:35:12;2.47;;;1.73;;
22786;SDS011;63134;52.020;4.714;2023-07-29T12:37:59;3.97;;;2.10;;
22786;SDS011;63134;52.020;4.714;2023-07-29T12:40:45;3.47;;;1.67;;
22786;SDS011;63134;52.020;4.714;2023-07-29T12:43:30;2.25;;;1.73;;
22786;SDS011;63134;52.020;4.714;2023-07-29T12:46:15;6.45;;;1.85;;
22786;SDS011;63134;52.020;4.714;2023-07-29T12:49:10;2.05;;;1.33;;
22786;SDS011;63134;52.020;4.714;2023-07-29T12:51:56;2.35;;;1.67;;
22786;SDS011;63134;52.020;4.714;2023-07-29T12:54:42;2.25;;;1.60;;
22786;SDS011;63134;52.020;4.714;2023-07-29T12:57:29;3.30;;;1.50;;
22786;SDS011;63134;52.020;4.714;2023-07-29T13:00:15;1.75;;;1.42;;
22786;SDS011;63134;52.020;4.714;2023-07-29T13:03:00;2.90;;;1.33;;
22786;SDS011;63134;52.020;4.714;2023-07-29T13:05:47;3.85;;;1.50;;
22786;SDS011;63134;52.020;4.714;2023-07-29T13:08:32;1.90;;;0.93;;
22786;SDS011;63134;52.020;4.714;2023-07-29T13:11:17;0.88;;;0.70;;
22786;SDS011;63134;52.020;4.714;2023-07-29T13:14:06;1.23;;;0.80;;
22786;SDS011;63134;52.020;4.714;2023-07-29T13:16:52;2.80;;;1.40;;
22786;SDS011;63134;52.020;4.714;2023-07-29T13:19:37;2.65;;;0.80;;
22786;SDS011;63134;52.020;4.714;2023-07-29T13:22:23;4.00;;;1.13;;
22786;SDS011;63134;52.020;4.714;2023-07-29T13:25:08;2.60;;;1.15;;
22786;SDS011;63134;52.020;4.714;2023-07-29T13:27:54;2.85;;;1.20;;
22786;SDS011;63134;52.020;4.714;2023-07-29T13:30:39;3.15;;;1.50;;
22786;SDS011;63134;52.020;4.714;2023-07-29T13:33:25;3.92;;;1.27;;
22786;SDS011;63134;52.020;4.714;2023-07-29T13:36:11;1.88;;;0.82;;
22786;SDS011;63134;52.020;4.714;2023-07-29T13:38:56;2.78;;;1.05;;
22786;SDS011;63134;52.020;4.714;2023-07-29T13:41:42;2.20;;;1.00;;
22786;SDS011;63134;52.020;4.714;2023-07-29T13:44:27;3.83;;;1.08;;
22786;SDS011;63134;52.020;4.714;2023-07-29T13:47:13;1.90;;;0.77;;
22786;SDS011;63134;52.020;4.714;2023-07-29T13:49:59;3.05;;;0.88;;
22786;SDS011;63134;52.020;4.714;2023-07-29T13:52:48;1.05;;;0.95;;
22786;SDS011;63134;52.020;4.714;2023-07-29T13:55:34;1.58;;;0.77;;
22786;SDS011;63134;52.020;4.714;2023-07-29T13:58:19;1.27;;;0.70;;
22786;SDS011;63134;52.020;4.714;2023-07-29T14:01:05;1.52;;;0.80;;
22786;SDS011;63134;52.020;4.714;2023-07-29T14:03:50;2.13;;;1.10;;
22786;SDS011;63134;52.020;4.714;2023-07-29T14:06:36;1.20;;;0.70;;
22786;SDS011;63134;52.020;4.714;2023-07-29T14:09:31;1.90;;;0.80;;
22786;SDS011;63134;52.020;4.714;2023-07-29T14:12:18;2.70;;;0.85;;
22786;SDS011;63134;52.020;4.714;2023-07-29T14:15:04;1.05;;;0.73;;
22786;SDS011;63134;52.020;4.714;2023-07-29T14:17:51;1.90;;;0.90;;
22786;SDS011;63134;52.020;4.714;2023-07-29T14:20:36;2.30;;;0.77;;
22786;SDS011;63134;52.020;4.714;2023-07-29T14:23:21;1.98;;;0.88;;
22786;SDS011;63134;52.020;4.714;2023-07-29T14:26:07;1.65;;;0.70;;
22786;SDS011;63134;52.020;4.714;2023-07-29T14:28:54;1.70;;;0.60;;
22786;SDS011;63134;52.020;4.714;2023-07-29T14:31:40;1.80;;;0.88;;
22786;SDS011;63134;52.020;4.714;2023-07-29T14:34:25;1.63;;;0.82;;
22786;SDS011;63134;52.020;4.714;2023-07-29T14:37:11;2.97;;;0.90;;
22786;SDS011;63134;52.020;4.714;2023-07-29T14:39:57;2.88;;;1.20;;
22786;SDS011;63134;52.020;4.714;2023-07-29T14:42:43;1.52;;;0.90;;
22786;SDS011;63134;52.020;4.714;2023-07-29T14:45:28;1.25;;;0.90;;
22786;SDS011;63134;52.020;4.714;2023-07-29T14:48:14;4.80;;;1.00;;
22786;SDS011;63134;52.020;4.714;2023-07-29T14:51:00;2.45;;;1.00;;
22786;SDS011;63134;52.020;4.714;2023-07-29T14:53:45;5.50;;;1.40;;
22786;SDS011;63134;52.020;4.714;2023-07-29T14:56:34;1.65;;;0.88;;
22786;SDS011;63134;52.020;4.714;2023-07-29T14:59:20;3.58;;;1.23;;
22786;SDS011;63134;52.020;4.714;2023-07-29T15:02:05;2.92;;;1.02;;
22786;SDS011;63134;52.020;4.714;2023-07-29T15:04:51;2.92;;;1.10;;
22786;SDS011;63134;52.020;4.714;2023-07-29T15:07:36;3.13;;;1.38;;
22786;SDS011;63134;52.020;4.714;2023-07-29T15:10:22;1.48;;;0.93;;
22786;SDS011;63134;52.020;4.714;2023-07-29T15:13:08;2.40;;;1.00;;
22786;SDS011;63134;52.020;4.714;2023-07-29T15:15:54;2.17;;;1.08;;
22786;SDS011;63134;52.020;4.714;2023-07-29T15:18:39;1.85;;;0.90;;
22786;SDS011;63134;52.020;4.714;2023-07-29T15:21:25;1.67;;;0.90;;
22786;SDS011;63134;52.020;4.714;2023-07-29T15:24:10;5.40;;;1.15;;
22786;SDS011;63134;52.020;4.714;2023-07-29T15:26:56;2.72;;;1.20;;
22786;SDS011;63134;52.020;4.714;2023-07-29T15:29:41;2.05;;;1.40;;
22786;SDS011;63134;52.020;4.714;2023-07-29T15:32:27;4.30;;;1.30;;
22786;SDS011;63134;52.020;4.714;2023-07-29T15:35:13;1.50;;;1.02;;
22786;SDS011;63134;52.020;4.714;2023-07-29T15:38:02;1.83;;;1.00;;
22786;SDS011;63134;52.020;4.714;2023-07-29T15:40:47;2.33;;;1.10;;
22786;SDS011;63134;52.020;4.714;2023-07-29T15:43:34;2.83;;;1.00;;
22786;SDS011;63134;52.020;4.714;2023-07-29T15:46:19;1.75;;;1.08;;
22786;SDS011;63134;52.020;4.714;2023-07-29T15:49:07;1.75;;;1.30;;
22786;SDS011;63134;52.020;4.714;2023-07-29T15:51:54;1.88;;;1.13;;
22786;SDS011;63134;52.020;4.714;2023-07-29T15:54:40;3.78;;;1.40;;
22786;SDS011;63134;52.020;4.714;2023-07-29T15:57:26;3.53;;;1.65;;
22786;SDS011;63134;52.020;4.714;2023-07-29T16:00:12;2.88;;;1.27;;
22786;SDS011;63134;52.020;4.714;2023-07-29T16:02:59;2.90;;;1.35;;
22786;SDS011;63134;52.020;4.714;2023-07-29T16:05:44;3.50;;;1.27;;
22786;SDS011;63134;52.020;4.714;2023-07-29T16:08:31;2.42;;;1.35;;
22786;SDS011;63134;52.020;4.714;2023-07-29T16:11:17;6.18;;;1.63;;
22786;SDS011;63134;52.020;4.714;2023-07-29T16:14:03;3.13;;;1.20;;
22786;SDS011;63134;52.020;4.714;2023-07-29T16:16:49;3.20;;;1.20;;
22786;SDS011;63134;52.020;4.714;2023-07-29T16:19:37;2.88;;;1.30;;
22786;SDS011;63134;52.020;4.714;2023-07-29T16:22:37;3.78;;;1.10;;
22786;SDS011;63134;52.020;4.714;2023-07-29T16:25:23;5.30;;;1.20;;
22786;SDS011;63134;52.020;4.714;2023-07-29T16:28:08;5.43;;;1.38;;
22786;SDS011;63134;52.020;4.714;2023-07-29T16:30:53;6.07;;;1.63;;
22786;SDS011;63134;52.020;4.714;2023-07-29T16:33:39;2.53;;;1.60;;
22786;SDS011;63134;52.020;4.714;2023-07-29T16:36:25;4.90;;;1.33;;
22786;SDS011;63134;52.020;4.714;2023-07-29T16:39:10;4.97;;;1.55;;
22786;SDS011;63134;52.020;4.714;2023-07-29T16:41:56;2.33;;;1.35;;
22786;SDS011;63134;52.020;4.714;2023-07-29T16:44:50;2.83;;;1.27;;
22786;SDS011;63134;52.020;4.714;2023-07-29T16:47:35;3.45;;;1.40;;
22786;SDS011;63134;52.020;4.714;2023-07-29T16:50:21;3.85;;;1.70;;
22786;SDS011;63134;52.020;4.714;2023-07-29T16:53:06;4.82;;;1.60;;
22786;SDS011;63134;52.020;4.714;2023-07-29T16:55:52;3.63;;;1.40;;